Time;durP1;ratioP1;P1;durP2;ratioP2;P2;SDS_P1;SDS_P2;PMS_P1;PMS_P2;Temp;Humidity;BMP_temperature;BMP_pressure;BME280_temperature;BME280_humidity;BME280_pressure;Samples;Min_cycle;Max_cycle;Signal;HPM_P1;HPM_P2
2022/01/26 00:00:42;;;;;;;78.32;29.63;;;;;;;3.22;71.52;102850.03;5110434;28;20514;-68
2022/01/26 00:06:04;;;;;;;84.70;30.80;;;;;;;3.37;70.55;102848.63;5110326;28;20054;-66
2022/01/26 00:08:31;;;;;;;94.38;32.08;;;;;;;3.33;70.91;102841.78;5108886;28;20092;-68
2022/01/26 00:10:57;;;;;;;87.57;31.13;;;;;;;3.33;70.56;102831.28;5101240;28;20036;-66
2022/01/26 00:13:24;;;;;;;82.80;30.73;;;;;;;3.24;70.86;102835.09;5090262;28;20044;-67
2022/01/26 00:15:51;;;;;;;93.50;31.20;;;;;;;3.33;70.32;102839.16;5088621;28;20078;-66
2022/01/26 00:18:21;;;;;;;86.93;32.13;;;;;;;3.16;71.48;102838.91;5090279;28;20040;-69
2022/01/26 00:20:55;;;;;;;92.60;32.83;;;;;;;2.98;72.11;102833.38;5088829;28;20093;-69
2022/01/26 00:26:21;;;;;;;96.18;32.40;;;;;;;3.14;71.50;102845.97;5089955;28;20403;-69
2022/01/26 00:29:08;;;;;;;87.38;30.95;;;;;;;3.29;71.08;102847.19;5057455;28;20048;-68
2022/01/26 00:40:10;;;;;;;88.45;31.92;;;;;;;3.32;71.09;102844.47;5108814;28;20043;-68
2022/01/26 00:42:40;;;;;;;94.00;33.03;;;;;;;3.26;71.64;102840.28;5108742;28;20400;-67
2022/01/26 00:45:08;;;;;;;86.20;28.85;;;;;;;3.24;71.10;102832.47;5109924;28;20051;-69
2022/01/26 00:47:36;;;;;;;80.30;28.95;;;;;;;3.01;71.59;102829.81;5108504;28;20044;-68
2022/01/26 00:50:07;;;;;;;70.82;27.25;;;;;;;3.00;71.31;102823.72;5109902;28;20126;-69
2022/01/26 00:52:44;;;;;;;78.20;29.27;;;;;;;2.92;71.77;102827.50;5109575;28;20564;-68
2022/01/26 00:55:14;;;;;;;79.47;30.00;;;;;;;2.83;72.12;102832.16;5109682;28;20142;-69
2022/01/26 00:57:42;;;;;;;83.93;31.73;;;;;;;2.86;72.43;102833.81;5108389;28;20399;-69
2022/01/26 01:00:16;;;;;;;87.47;30.45;;;;;;;2.89;72.57;102833.69;5109803;28;20044;-69
2022/01/26 01:02:43;;;;;;;89.25;32.42;;;;;;;3.14;71.96;102832.84;5108371;28;20126;-68
2022/01/26 01:05:19;;;;;;;98.32;34.83;;;;;;;2.97;72.53;102834.31;5107736;28;20093;-68
2022/01/26 01:07:48;;;;;;;96.43;34.17;;;;;;;3.09;72.61;102830.38;5102811;28;20044;-68
2022/01/26 01:10:19;;;;;;;89.13;33.00;;;;;;;3.05;72.82;102823.53;5095976;28;20549;-69
2022/01/26 01:12:48;;;;;;;92.22;32.90;;;;;;;3.00;73.06;102828.97;5095908;28;20047;-68
2022/01/26 01:15:16;;;;;;;98.70;33.22;;;;;;;3.16;72.38;102824.00;5094487;28;20446;-68
2022/01/26 01:17:49;;;;;;;89.03;32.05;;;;;;;3.08;72.45;102829.53;5094421;28;20040;-68
2022/01/26 01:20:44;;;;;;;98.75;35.20;;;;;;;2.94;72.69;102823.91;5095679;28;20097;-68
2022/01/26 01:23:26;;;;;;;99.45;35.63;;;;;;;3.16;72.72;102828.41;5094425;28;20127;-67
2022/01/26 01:26:40;;;;;;;103.78;35.65;;;;;;;3.00;73.54;102836.84;5095574;28;20047;-68
2022/01/26 01:31:41;;;;;;;106.75;38.17;;;;;;;2.92;74.29;102840.63;5095300;28;20081;-68
2022/01/26 01:34:09;;;;;;;120.05;38.58;;;;;;;2.92;74.51;102838.00;5093570;28;20068;-68
2022/01/26 01:36:38;;;;;;;107.82;38.92;;;;;;;3.14;73.63;102846.81;5094378;28;20090;-68
2022/01/26 01:39:08;;;;;;;108.63;40.17;;;;;;;3.32;72.95;102837.44;5095306;28;20040;-67
2022/01/26 01:41:36;;;;;;;120.82;43.03;;;;;;;3.16;73.03;102831.88;5094219;28;20036;-68
2022/01/26 01:44:04;;;;;;;113.25;38.78;;;;;;;3.01;73.18;102835.91;5095250;28;20524;-67
2022/01/26 01:46:33;;;;;;;129.82;43.45;;;;;;;2.83;74.17;102839.16;5094046;28;20101;-68
2022/01/26 01:49:00;;;;;;;122.55;41.65;;;;;;;2.77;75.42;102832.38;5095257;28;20044;-68
2022/01/26 01:51:32;;;;;;;125.72;41.28;;;;;;;2.83;75.71;102836.53;5093761;28;20435;-69
2022/01/26 01:53:59;;;;;;;122.05;41.83;;;;;;;2.86;74.78;102823.34;5094061;28;20048;-69
2022/01/26 01:56:26;;;;;;;119.00;38.67;;;;;;;3.01;74.21;102828.03;5094637;28;20097;-68
2022/01/26 01:58:56;;;;;;;127.78;41.15;;;;;;;2.85;74.41;102838.19;5095128;28;20052;-68
2022/01/26 02:01:23;;;;;;;139.45;42.17;;;;;;;2.81;74.06;102828.72;5094695;28;20101;-68
2022/01/26 02:03:50;;;;;;;113.47;40.03;;;;;;;2.76;74.16;102832.41;5084123;28;20426;-67
2022/01/26 02:06:18;;;;;;;115.07;36.35;;;;;;;2.77;73.17;102834.16;5073218;28;20489;-68
2022/01/26 02:08:45;;;;;;;113.82;38.22;;;;;;;2.73;73.53;102829.88;5077695;28;20046;-68
2022/01/26 02:11:13;;;;;;;132.50;42.38;;;;;;;2.76;74.00;102828.03;5091618;28;20052;-68
2022/01/26 02:13:54;;;;;;;150.27;43.88;;;;;;;2.48;74.83;102836.81;5094534;28;20515;-68
2022/01/26 02:52:49;;;;;;;191.32;49.30;;;;;;;2.69;73.35;102790.69;5090455;27;20382;-68
2022/01/26 02:55:32;;;;;;;186.52;46.83;;;;;;;2.60;73.30;102803.25;5090371;28;20040;-68
2022/01/26 03:01:20;;;;;;;189.35;46.60;;;;;;;2.57;73.84;102798.13;5089168;28;20040;-68
2022/01/26 03:03:40;;;;;;;192.82;48.08;;;;;;;2.56;74.47;102791.16;5073948;28;20045;-68
2022/01/26 03:06:12;;;;;;;187.43;48.83;;;;;;;2.63;74.27;102785.66;5070192;28;20405;-69
2022/01/26 03:08:45;;;;;;;193.88;47.42;;;;;;;2.80;73.67;102786.84;5067131;28;20044;-67
2022/01/26 03:11:14;;;;;;;194.20;48.60;;;;;;;2.73;73.17;102773.09;5069822;28;20044;-68
2022/01/26 03:13:48;;;;;;;189.38;47.63;;;;;;;2.56;73.97;102763.19;5068883;28;20067;-66
2022/01/26 03:16:22;;;;;;;179.85;47.13;;;;;;;2.68;73.18;102770.63;5068491;28;20044;-67
2022/01/26 03:18:56;;;;;;;182.65;46.40;;;;;;;2.62;73.11;102764.72;5068806;28;20453;-66
2022/01/26 03:21:35;;;;;;;177.00;44.63;;;;;;;2.53;73.01;102754.56;5068712;28;20041;-66
2022/01/26 03:34:54;;;;;;;161.70;41.75;;;;;;;2.48;72.17;102755.59;5088595;27;20869;-68
2022/01/26 03:37:25;;;;;;;165.63;43.20;;;;;;;2.67;72.22;102739.22;5089346;28;20044;-68
2022/01/26 03:39:53;;;;;;;117.22;31.13;;;;;;;2.64;71.85;102744.59;5090115;28;20059;-68
2022/01/26 03:42:20;;;;;;;156.82;40.95;;;;;;;2.61;72.00;102739.47;5090332;28;20040;-68
2022/01/26 03:44:48;;;;;;;154.10;40.67;;;;;;;2.73;71.99;102740.78;5090274;28;20037;-68
2022/01/26 03:47:15;;;;;;;151.13;41.15;;;;;;;2.65;71.60;102727.94;5090141;28;20044;-68
2022/01/26 03:49:42;;;;;;;150.75;40.75;;;;;;;2.42;72.96;102731.34;5089091;28;20451;-68
2022/01/26 03:52:10;;;;;;;159.55;41.92;;;;;;;2.50;72.68;102730.19;5089988;28;20405;-68
2022/01/26 03:54:37;;;;;;;148.30;40.10;;;;;;;2.55;72.54;102730.06;5072042;28;20111;-68
2022/01/26 03:57:04;;;;;;;128.18;34.75;;;;;;;2.42;72.42;102745.34;5088892;28;20467;-68
2022/01/26 03:59:31;;;;;;;136.70;39.03;;;;;;;2.32;73.16;102749.16;5090155;28;20048;-67
2022/01/26 04:01:58;;;;;;;140.02;39.78;;;;;;;2.36;73.29;102748.13;5089833;28;20089;-68
2022/01/26 04:04:25;;;;;;;141.88;38.30;;;;;;;2.25;73.80;102740.66;5045826;28;20041;-67
2022/01/26 04:06:52;;;;;;;137.13;38.42;;;;;;;2.55;73.22;102745.78;5068363;28;20045;-68
2022/01/26 04:09:19;;;;;;;139.35;37.58;;;;;;;2.35;73.77;102751.69;5078620;28;20047;-68
2022/01/26 04:11:49;;;;;;;137.05;37.85;;;;;;;2.50;73.33;102760.78;5089626;28;20036;-68
2022/01/26 04:14:20;;;;;;;144.52;38.58;;;;;;;2.52;73.22;102761.59;5088009;28;20060;-69
2022/01/26 04:16:47;;;;;;;135.32;37.85;;;;;;;2.60;73.37;102766.56;5089554;28;20040;-67
2022/01/26 04:19:14;;;;;;;134.70;39.05;;;;;;;2.59;73.68;102757.00;5088518;28;20040;-68
2022/01/26 04:24:41;;;;;;;125.75;37.03;;;;;;;2.89;71.69;102755.03;5090638;27;20381;-68
2022/01/26 04:27:19;;;;;;;143.13;40.20;;;;;;;2.73;72.55;102752.13;5087918;28;20040;-68
2022/01/26 04:29:48;;;;;;;130.40;35.97;;;;;;;2.76;72.54;102743.31;5090491;28;20041;-69
2022/01/26 04:32:16;;;;;;;130.02;35.15;;;;;;;2.78;72.14;102754.59;5088421;28;20036;-68
2022/01/26 04:34:47;;;;;;;145.23;39.05;;;;;;;2.61;72.72;102744.69;5089146;28;20040;-68
2022/01/26 04:37:28;;;;;;;127.20;35.95;;;;;;;2.48;73.22;102760.00;5089345;28;20098;-68
2022/01/26 04:40:00;;;;;;;138.48;35.83;;;;;;;2.32;74.09;102759.63;5089219;28;20056;-68
2022/01/26 04:42:40;;;;;;;151.70;38.17;;;;;;;2.19;75.11;102768.81;5090121;28;20489;-68
2022/01/26 04:45:10;;;;;;;143.98;40.53;;;;;;;2.32;75.20;102772.72;5089969;28;20040;-68
2022/01/26 04:47:37;;;;;;;148.02;39.22;;;;;;;2.44;74.86;102774.94;5090106;28;20416;-68
2022/01/26 04:50:06;;;;;;;137.50;39.22;;;;;;;2.36;74.95;102773.50;5088496;28;20530;-66
2022/01/26 04:52:33;;;;;;;165.50;40.63;;;;;;;2.51;74.95;102778.22;5105608;28;20552;-67
2022/01/26 04:55:00;;;;;;;144.65;38.30;;;;;;;2.81;72.88;102778.91;5088451;28;20048;-68
2022/01/26 04:57:26;;;;;;;137.38;38.72;;;;;;;2.68;73.43;102780.28;5089900;28;20040;-68
2022/01/26 04:59:53;;;;;;;140.55;39.47;;;;;;;2.47;74.08;102790.56;5089861;28;20098;-68
2022/01/26 05:02:20;;;;;;;143.68;40.42;;;;;;;2.75;72.88;102788.75;5089448;28;20044;-68
2022/01/26 05:04:47;;;;;;;140.07;39.15;;;;;;;2.76;73.06;102782.63;5087837;28;20568;-69
2022/01/26 05:07:13;;;;;;;131.80;36.95;;;;;;;2.77;72.66;102779.09;5089517;28;20071;-68
2022/01/26 05:09:41;;;;;;;137.40;38.00;;;;;;;2.75;73.45;102773.91;5089716;28;20044;-69
2022/01/26 05:12:09;;;;;;;141.88;39.50;;;;;;;2.74;73.12;102772.19;5089419;28;20036;-68
2022/01/26 05:14:38;;;;;;;132.15;37.40;;;;;;;2.59;73.41;102772.72;5088375;28;20041;-68
2022/01/26 05:17:05;;;;;;;137.45;38.33;;;;;;;2.50;74.13;102779.97;5088360;28;20044;-68
2022/01/26 05:19:32;;;;;;;143.70;39.30;;;;;;;2.41;74.57;102784.69;5088417;28;20048;-68
2022/01/26 05:21:59;;;;;;;139.95;38.55;;;;;;;2.45;74.28;102792.38;5088252;28;20390;-68
2022/01/26 05:24:25;;;;;;;135.38;36.70;;;;;;;2.36;74.55;102800.53;5089062;28;20052;-69
2022/01/26 05:26:52;;;;;;;147.55;40.10;;;;;;;2.48;75.14;102799.28;5088656;28;20041;-68
2022/01/26 05:29:19;;;;;;;163.68;39.58;;;;;;;2.48;74.44;102801.91;5088007;28;20044;-66
2022/01/26 05:31:45;;;;;;;135.93;38.95;;;;;;;2.33;75.00;102800.66;5089097;28;20059;-68
2022/01/26 05:34:12;;;;;;;159.85;40.85;;;;;;;2.33;75.50;102797.16;5082396;28;20048;-69
2022/01/26 05:36:39;;;;;;;143.20;37.80;;;;;;;2.29;75.36;102799.91;5075259;28;20186;-68
2022/01/26 05:39:05;;;;;;;161.15;40.60;;;;;;;2.20;75.75;102808.06;5075386;28;20040;-68
2022/01/26 05:41:32;;;;;;;164.95;41.63;;;;;;;2.05;76.89;102812.00;5074201;28;20500;-68
2022/01/26 05:44:00;;;;;;;158.32;40.20;;;;;;;2.10;76.66;102811.84;5075393;28;20041;-67
2022/01/26 05:46:36;;;;;;;153.32;39.05;;;;;;;2.19;75.95;102800.25;5069230;28;20090;-68
2022/01/26 05:49:03;;;;;;;170.55;40.40;;;;;;;2.22;75.89;102785.28;5075194;28;20157;-68
2022/01/26 05:51:32;;;;;;;157.10;40.45;;;;;;;2.35;75.44;102787.47;5074096;28;20041;-68
2022/01/26 05:54:01;;;;;;;164.60;40.88;;;;;;;2.17;75.90;102795.03;5074921;28;20040;-68
2022/01/26 05:56:29;;;;;;;159.27;39.95;;;;;;;2.19;75.76;102788.00;5075277;28;20042;-68
2022/01/26 05:58:56;;;;;;;167.95;41.67;;;;;;;2.12;75.63;102786.47;5073878;28;20528;-67
2022/01/26 06:01:22;;;;;;;162.80;39.97;;;;;;;1.93;75.90;102788.84;5073781;28;20068;-68
2022/01/26 06:03:49;;;;;;;161.40;39.75;;;;;;;2.14;76.00;102796.91;5071748;28;20056;-67
2022/01/26 06:06:16;;;;;;;173.75;40.38;;;;;;;2.13;75.67;102785.59;5064644;28;20044;-67
2022/01/26 06:08:44;;;;;;;179.50;41.63;;;;;;;2.18;75.90;102782.81;5061442;28;20131;-68
2022/01/26 06:11:10;;;;;;;179.40;41.95;;;;;;;2.37;74.83;102765.59;5073894;28;20040;-68
2022/01/26 06:13:37;;;;;;;188.95;44.20;;;;;;;2.38;75.06;102763.81;5057089;28;20037;-68
2022/01/26 06:16:04;;;;;;;187.00;42.35;;;;;;;2.25;75.64;102761.59;5073385;28;20048;-68
2022/01/26 06:18:31;;;;;;;189.65;43.75;;;;;;;2.19;75.30;102759.19;5090823;28;20044;-68
2022/01/26 06:20:58;;;;;;;171.88;41.25;;;;;;;2.18;75.40;102739.13;5090141;28;20045;-68
2022/01/26 06:23:25;;;;;;;201.75;43.50;;;;;;;2.20;75.65;102739.97;5074205;28;20041;-68
2022/01/26 06:25:54;;;;;;;187.02;42.97;;;;;;;2.15;76.09;102772.41;5074299;28;20044;-68
2022/01/26 06:28:23;;;;;;;197.88;42.83;;;;;;;2.16;76.10;102766.28;5057083;28;20055;-68
2022/01/26 06:30:55;;;;;;;197.18;43.85;;;;;;;2.46;74.09;102773.13;5071200;28;20041;-68
2022/01/26 06:33:22;;;;;;;186.07;42.47;;;;;;;2.44;73.74;102782.81;5074436;28;20040;-69
2022/01/26 06:35:50;;;;;;;207.20;44.70;;;;;;;2.42;74.39;102783.75;5074378;28;20037;-68
2022/01/26 06:38:17;;;;;;;199.23;46.42;;;;;;;2.35;73.66;102772.66;5074305;28;20048;-68
2022/01/26 06:40:43;;;;;;;201.32;44.42;;;;;;;2.28;74.55;102782.47;5074006;28;20086;-68
2022/01/26 06:43:14;;;;;;;180.95;43.42;;;;;;;2.24;75.26;102775.63;5073314;28;20127;-68
2022/01/26 06:45:48;;;;;;;203.27;47.85;;;;;;;2.13;75.36;102784.72;5073435;28;20048;-68
2022/01/26 06:48:40;;;;;;;221.88;48.05;;;;;;;2.16;75.86;102784.63;5041435;28;20437;-68
2022/01/26 06:51:01;;;;;;;210.13;47.25;;;;;;;2.26;75.33;102791.28;5072531;28;20051;-68
2022/01/26 06:53:28;;;;;;;213.98;46.33;;;;;;;2.34;75.70;102791.03;5072448;28;20044;-68
2022/01/26 06:55:56;;;;;;;218.52;47.38;;;;;;;2.39;75.29;102783.88;5073501;28;20123;-68
2022/01/26 06:58:24;;;;;;;213.98;47.70;;;;;;;2.42;75.02;102786.38;5072663;28;20048;-68
2022/01/26 07:00:51;;;;;;;214.73;48.55;;;;;;;2.62;73.93;102785.69;5073654;28;20056;-68
2022/01/26 07:03:18;;;;;;;202.38;46.25;;;;;;;2.48;74.46;102775.72;5071281;28;20037;-67
2022/01/26 07:05:45;;;;;;;209.32;47.83;;;;;;;2.36;75.10;102761.25;5054617;28;20131;-67
2022/01/26 07:08:11;;;;;;;202.63;46.13;;;;;;;2.50;74.04;102755.53;5071744;28;20098;-67
2022/01/26 07:10:38;;;;;;;210.95;47.92;;;;;;;2.37;74.49;102749.88;5055575;28;20144;-68
2022/01/26 07:13:05;;;;;;;206.85;47.08;;;;;;;2.36;74.83;102752.53;5073011;28;20048;-67
2022/01/26 07:21:36;;;;;;;188.43;44.60;;;;;;;2.43;74.77;102778.47;5073495;28;20044;-67
2022/01/26 07:23:53;;;;;;;189.32;44.30;;;;;;;2.36;74.86;102789.22;5073044;28;20051;-67
2022/01/26 07:26:19;;;;;;;195.45;47.33;;;;;;;2.40;75.48;102783.81;5071939;28;20091;-67
2022/01/26 07:28:46;;;;;;;204.73;47.33;;;;;;;2.50;74.77;102774.72;5073345;28;20043;-67
2022/01/26 07:31:13;;;;;;;218.48;47.45;;;;;;;2.40;75.42;102754.13;5071443;28;20110;-67
2022/01/26 07:33:41;;;;;;;200.98;45.78;;;;;;;2.39;75.58;102766.38;5089094;28;20036;-67
2022/01/26 07:36:09;;;;;;;201.00;46.50;;;;;;;2.44;75.72;102761.84;5055476;28;20047;-67
2022/01/26 07:38:35;;;;;;;196.55;46.08;;;;;;;2.47;75.06;102774.84;5073186;28;20060;-67
2022/01/26 07:41:03;;;;;;;195.68;45.13;;;;;;;2.48;74.92;102760.84;5071333;28;20048;-67
2022/01/26 07:43:31;;;;;;;202.57;46.10;;;;;;;2.46;75.14;102760.03;5071869;28;20048;-69
2022/01/26 07:45:58;;;;;;;190.85;46.10;;;;;;;2.57;75.07;102761.44;5073134;28;20040;-69
2022/01/26 07:48:25;;;;;;;193.35;47.13;;;;;;;2.57;75.31;102758.81;5071766;28;20043;-70
2022/01/26 07:50:52;;;;;;;209.65;47.17;;;;;;;2.42;75.38;102762.78;5071892;28;20044;-69
2022/01/26 07:53:19;;;;;;;199.23;47.35;;;;;;;2.43;75.89;102772.38;5055448;28;20049;-69
2022/01/26 07:55:48;;;;;;;182.30;45.47;;;;;;;2.46;75.59;102778.38;5071720;28;20044;-69
2022/01/26 07:58:18;;;;;;;199.35;48.97;;;;;;;2.52;75.62;102776.47;5072740;28;20060;-69
2022/01/26 08:00:45;;;;;;;195.18;46.17;;;;;;;2.41;75.77;102780.28;5071622;28;20036;-69
2022/01/26 08:03:11;;;;;;;202.15;48.80;;;;;;;2.59;75.27;102785.81;5055097;28;20048;-70
2022/01/26 08:05:38;;;;;;;205.75;47.05;;;;;;;2.61;75.50;102786.63;5070889;28;20059;-69
2022/01/26 08:08:06;;;;;;;200.20;48.65;;;;;;;2.76;74.70;102778.22;5093181;28;20046;-68
2022/01/26 08:10:32;;;;;;;212.73;47.60;;;;;;;2.63;75.62;102758.59;5055456;28;20063;-68
2022/01/26 08:12:59;;;;;;;197.07;48.90;;;;;;;2.71;76.09;102746.09;5070396;28;20397;-68
2022/01/26 08:15:26;;;;;;;184.63;47.33;;;;;;;2.54;76.49;102761.53;5071301;28;20049;-68
2022/01/26 08:17:54;;;;;;;187.52;45.28;;;;;;;2.65;76.26;102777.75;5072644;28;20068;-69
2022/01/26 08:20:22;;;;;;;188.70;48.08;;;;;;;2.63;75.98;102764.69;5072557;28;20044;-67
2022/01/26 08:22:53;;;;;;;197.85;48.03;;;;;;;2.64;76.50;102765.56;5001448;28;20044;-63
2022/01/26 08:25:45;;;;;;;180.45;43.85;;;;;;;2.60;76.39;102775.28;5070742;28;20029;-64
2022/01/26 08:28:20;;;;;;;188.05;46.42;;;;;;;2.57;77.28;102780.63;5087903;28;20449;-63
2022/01/26 08:30:47;;;;;;;182.35;45.13;;;;;;;2.63;76.83;102775.16;5063978;28;20143;-64
2022/01/26 08:33:13;;;;;;;187.15;46.25;;;;;;;2.83;76.02;102787.59;5057542;28;20033;-63
2022/01/26 08:35:41;;;;;;;188.85;45.33;;;;;;;2.65;76.92;102796.09;5058457;28;20055;-63
2022/01/26 08:38:08;;;;;;;197.10;46.50;;;;;;;2.79;76.24;102798.25;5055362;28;20481;-63
2022/01/26 08:40:34;;;;;;;194.13;45.63;;;;;;;2.82;76.11;102791.13;5059071;28;20059;-64
2022/01/26 08:43:02;;;;;;;205.20;47.22;;;;;;;2.85;75.86;102804.09;5066775;28;20045;-63
2022/01/26 08:45:29;;;;;;;190.98;46.55;;;;;;;2.75;76.84;102812.34;5068774;28;20111;-64
2022/01/26 08:47:56;;;;;;;182.07;45.33;;;;;;;2.81;76.49;102814.78;5062317;28;20052;-61
2022/01/26 08:50:23;;;;;;;195.30;48.63;;;;;;;2.60;77.00;102821.59;5059024;28;20072;-64
2022/01/26 08:52:51;;;;;;;201.10;48.53;;;;;;;2.52;77.01;102836.72;5066371;28;20493;-64
2022/01/26 08:55:17;;;;;;;190.27;47.70;;;;;;;2.47;77.62;102834.25;5064801;28;20041;-65
2022/01/26 08:57:44;;;;;;;196.48;48.78;;;;;;;2.55;77.73;102827.00;5069338;28;20068;-65
2022/01/26 09:00:12;;;;;;;197.50;47.65;;;;;;;2.52;77.52;102821.84;5067503;28;20044;-65
2022/01/26 09:02:41;;;;;;;188.93;47.55;;;;;;;2.52;77.43;102807.91;5058854;28;20059;-64
2022/01/26 09:05:08;;;;;;;200.57;45.92;;;;;;;2.63;77.33;102819.72;5067780;28;20036;-64
2022/01/26 09:07:36;;;;;;;188.40;45.22;;;;;;;2.57;77.12;102821.72;5061419;28;20048;-64
2022/01/26 09:10:05;;;;;;;185.40;45.67;;;;;;;2.43;78.09;102825.63;5060712;28;20072;-64
2022/01/26 09:12:34;;;;;;;172.13;42.35;;;;;;;2.51;77.89;102833.25;5064470;28;20052;-64
2022/01/26 09:15:05;;;;;;;187.35;44.35;;;;;;;2.21;78.86;102822.84;5053705;28;20036;-63
2022/01/26 09:17:34;;;;;;;177.02;45.10;;;;;;;2.42;78.49;102825.66;5071705;28;20045;-64
2022/01/26 09:20:05;;;;;;;178.30;45.33;;;;;;;2.33;79.12;102820.72;5062106;28;20052;-64
2022/01/26 09:22:31;;;;;;;206.27;49.17;;;;;;;2.42;78.88;102821.31;5063389;28;20139;-64
2022/01/26 09:24:58;;;;;;;203.52;46.45;;;;;;;2.47;79.10;102821.13;5064015;28;20033;-64
2022/01/26 09:27:25;;;;;;;160.77;40.90;;;;;;;2.58;78.31;102826.03;5073260;28;20044;-64
2022/01/26 09:29:52;;;;;;;178.85;43.28;;;;;;;2.54;78.69;102822.66;5059973;28;20075;-64
2022/01/26 09:32:19;;;;;;;192.45;44.05;;;;;;;2.50;79.19;102827.13;5067556;28;20048;-64
2022/01/26 09:34:46;;;;;;;170.10;43.08;;;;;;;2.56;78.89;102835.72;5069549;28;20040;-64
2022/01/26 09:37:16;;;;;;;180.95;44.08;;;;;;;2.57;79.23;102840.06;5064851;28;20127;-64
2022/01/26 09:39:45;;;;;;;165.05;41.45;;;;;;;2.54;79.19;102845.38;5065713;28;20511;-64
2022/01/26 09:42:12;;;;;;;186.05;43.72;;;;;;;2.46;79.90;102836.00;5096915;27;20051;-64
2022/01/26 09:44:39;;;;;;;194.32;46.00;;;;;;;2.62;79.85;102836.38;5064452;28;20037;-64
2022/01/26 09:47:07;;;;;;;168.80;44.17;;;;;;;2.65;79.75;102841.50;5067684;28;20416;-64
2022/01/26 09:49:36;;;;;;;186.75;44.88;;;;;;;2.66;80.30;102851.06;5063397;28;20044;-64
2022/01/26 09:52:14;;;;;;;207.63;47.60;;;;;;;2.70;79.74;102854.44;5059631;28;20045;-64
2022/01/26 09:54:42;;;;;;;184.70;45.00;;;;;;;2.67;79.62;102847.56;5058086;28;20059;-64
2022/01/26 09:57:22;;;;;;;178.60;43.65;;;;;;;2.72;80.23;102850.00;5069920;28;20046;-64
2022/01/26 09:59:49;;;;;;;204.65;45.58;;;;;;;2.71;79.64;102839.56;5064417;28;20037;-64
2022/01/26 10:02:33;;;;;;;184.77;43.80;;;;;;;2.84;80.16;102839.13;5060554;28;20477;-64
2022/01/26 10:05:07;;;;;;;186.40;42.40;;;;;;;2.72;79.16;102841.31;5061553;28;20047;-64
2022/01/26 10:15:57;;;;;;;189.35;43.70;;;;;;;2.67;80.64;102821.34;5104278;28;20467;-63
2022/01/26 10:18:24;;;;;;;198.52;45.22;;;;;;;2.65;80.26;102817.06;5103501;28;20071;-63
2022/01/26 10:20:56;;;;;;;202.27;44.85;;;;;;;2.53;80.75;102826.19;5101081;28;20043;-63
2022/01/26 10:23:26;;;;;;;205.88;45.75;;;;;;;2.59;80.22;102815.50;5105252;28;20032;-64
2022/01/26 10:26:14;;;;;;;188.80;42.70;;;;;;;2.55;80.52;102811.28;5100530;28;20051;-64
2022/01/26 10:31:30;;;;;;;202.60;44.92;;;;;;;2.59;80.75;102810.25;5086583;27;20125;-63
2022/01/26 10:34:10;;;;;;;188.18;41.83;;;;;;;2.59;81.16;102815.50;5069281;28;20033;-63
2022/01/26 10:39:29;;;;;;;208.95;44.13;;;;;;;2.52;81.44;102816.59;5063707;28;20413;-65
2022/01/26 10:42:01;;;;;;;205.57;42.53;;;;;;;2.56;81.12;102815.59;5040889;28;20121;-65
2022/01/26 10:44:32;;;;;;;;;;;;;;;2.54;80.85;102827.03;5034376;28;20339;-64
2022/01/26 10:47:01;;;;;;;183.82;41.80;;;;;;;2.61;80.70;102826.78;5030688;28;19925;-64
2022/01/26 10:54:57;;;;;;;181.93;40.00;;;;;;;2.58;81.46;102799.81;5105520;28;20127;-64
2022/01/26 10:57:25;;;;;;;199.50;44.03;;;;;;;2.76;80.96;102803.59;5112967;28;20043;-64
2022/01/26 10:59:52;;;;;;;205.20;43.67;;;;;;;2.80;80.25;102813.03;5110739;28;20059;-63
2022/01/26 11:02:25;;;;;;;187.43;39.03;;;;;;;2.69;80.81;102814.28;5106491;28;20074;-63
2022/01/26 11:04:52;;;;;;;204.85;43.78;;;;;;;2.55;81.17;102821.75;5109637;28;20131;-63
2022/01/26 11:07:19;;;;;;;197.70;43.97;;;;;;;2.57;81.35;102830.41;5100434;28;20054;-63
2022/01/26 11:09:48;;;;;;;205.45;45.58;;;;;;;2.84;80.90;102820.75;5108667;28;20040;-63
2022/01/26 11:12:26;;;;;;;201.10;43.10;;;;;;;2.73;80.84;102817.66;5111352;28;20047;-63
2022/01/26 11:15:02;;;;;;;178.38;40.38;;;;;;;2.74;81.17;102823.75;5099892;28;20047;-63
2022/01/26 11:17:35;;;;;;;202.38;44.30;;;;;;;2.86;80.76;102818.94;5099786;28;20042;-63
2022/01/26 11:20:32;;;;;;;181.80;40.63;;;;;;;2.63;81.14;102829.34;5095327;28;20040;-63
2022/01/26 11:23:00;;;;;;;189.55;40.65;;;;;;;2.40;82.33;102828.38;5101288;28;20042;-63
2022/01/26 11:25:29;;;;;;;193.10;42.50;;;;;;;2.40;82.61;102823.13;5122647;28;20044;-64
2022/01/26 11:27:58;;;;;;;162.13;36.15;;;;;;;2.40;83.08;102820.50;5096726;28;20489;-63
2022/01/26 11:30:27;;;;;;;180.68;38.78;;;;;;;2.58;82.33;102832.13;5113545;28;20040;-63
2022/01/26 11:33:02;;;;;;;173.63;38.80;;;;;;;2.58;81.84;102844.38;5108330;28;20127;-63
2022/01/26 11:35:32;;;;;;;185.63;38.70;;;;;;;2.74;82.27;102844.72;5102016;28;20039;-64
2022/01/26 11:38:14;;;;;;;161.35;38.42;;;;;;;2.64;82.50;102841.56;5107549;28;20044;-63
2022/01/26 11:46:30;;;;;;;173.48;37.28;;;;;;;2.73;82.23;102832.50;5094466;28;20289;-64
2022/01/26 11:49:07;;;;;;;169.88;36.92;;;;;;;3.02;81.70;102831.50;5102115;28;20066;-64
2022/01/26 11:54:19;;;;;;;172.35;38.22;;;;;;;2.84;82.39;102823.38;5055174;27;21190;-65
2022/01/26 11:57:08;;;;;;;163.57;36.97;;;;;;;2.80;82.67;102815.66;5030237;28;20045;-64
2022/01/26 11:59:42;;;;;;;153.20;35.78;;;;;;;2.79;82.36;102811.34;5047996;28;20045;-64
2022/01/26 12:02:42;;;;;;;153.00;36.42;;;;;;;2.79;82.64;102824.47;5060363;28;20116;-64
2022/01/26 12:05:16;;;;;;;156.15;35.58;;;;;;;2.65;83.14;102811.81;5024755;28;20136;-64
2022/01/26 12:07:54;;;;;;;145.77;35.72;;;;;;;2.56;83.61;102818.22;5028203;28;20437;-64
2022/01/26 12:10:28;;;;;;;162.50;36.28;;;;;;;2.76;83.57;102812.28;5050732;28;20378;-65
2022/01/26 12:13:04;;;;;;;148.55;34.65;;;;;;;2.80;83.44;102813.03;5044866;28;20116;-64
2022/01/26 12:15:42;;;;;;;143.88;33.75;;;;;;;2.85;82.74;102816.38;5040742;28;20041;-64
2022/01/26 12:35:40;;;;;;;141.45;32.95;;;;;;;2.52;84.25;102784.31;5101968;28;20047;-63
2022/01/26 12:38:44;;;;;;;;;;;;;;;2.72;83.97;102792.34;5092324;28;20115;-63
2022/01/26 12:43:47;;;;;;;126.65;31.17;;;;;;;2.81;83.19;102780.69;5109404;28;20043;-63
2022/01/26 12:46:18;;;;;;;125.15;30.85;;;;;;;2.89;82.99;102778.66;5104293;28;20411;-63
2022/01/26 12:48:52;;;;;;;141.65;33.88;;;;;;;2.98;82.38;102785.34;5100115;28;20051;-63
2022/01/26 12:51:20;;;;;;;123.85;30.75;;;;;;;2.82;82.51;102772.78;5108390;27;20032;-65
2022/01/26 12:53:52;;;;;;;143.00;31.73;;;;;;;2.93;82.53;102785.50;5105641;28;20377;-63
2022/01/26 12:56:19;;;;;;;125.60;30.55;;;;;;;2.77;82.49;102781.72;5105908;28;20040;-63
2022/01/26 12:58:47;;;;;;;137.10;35.85;;;;;;;2.83;82.59;102784.97;5109150;28;20093;-63
2022/01/26 13:01:17;;;;;;;136.00;33.10;;;;;;;2.58;83.16;102784.94;5107443;28;20412;-63
2022/01/26 13:03:47;;;;;;;131.63;32.22;;;;;;;2.76;83.40;102790.47;5109780;28;20507;-63
2022/01/26 13:06:22;;;;;;;121.38;29.92;;;;;;;2.81;83.04;102786.78;5116086;28;20427;-64
2022/01/26 13:08:53;;;;;;;133.38;31.52;;;;;;;2.76;83.17;102790.47;5104908;28;20135;-63
2022/01/26 13:11:23;;;;;;;124.13;31.05;;;;;;;2.84;82.93;102796.31;5103602;28;20570;-63
2022/01/26 13:14:16;;;;;;;125.63;30.73;;;;;;;3.03;81.93;102781.63;5108675;28;20495;-64
2022/01/26 13:17:13;;;;;;;116.07;30.85;;;;;;;2.73;83.11;102783.59;5106404;28;20403;-64
2022/01/26 13:20:19;;;;;;;130.88;32.33;;;;;;;2.92;81.91;102769.84;5104256;28;20058;-69
2022/01/26 13:26:12;;;;;;;131.65;32.33;;;;;;;3.05;82.19;102755.34;5130594;27;21175;-64
2022/01/26 13:37:18;;;;;;;111.07;28.02;;;;;;;2.90;82.06;102750.69;5108178;28;20067;-64
2022/01/26 13:39:55;;;;;;;114.82;31.25;;;;;;;2.86;82.32;102739.44;5100826;28;20047;-64
2022/01/26 13:50:41;;;;;;;117.97;33.05;;;;;;;2.98;82.44;102730.28;5115315;28;20134;-65